sensor_id;sensor_type;location;lat;lon;timestamp;P1;durP1;ratioP1;P2;durP2;ratioP2
2474;SDS011;1248;48.694;10.160;2022-10-26T00:00:10;16.57;;;5.70;;
2474;SDS011;1248;48.694;10.160;2022-10-26T00:02:37;7.50;;;4.83;;
2474;SDS011;1248;48.694;10.160;2022-10-26T00:05:04;7.80;;;5.00;;
2474;SDS011;1248;48.694;10.160;2022-10-26T00:07:32;10.43;;;5.53;;
2474;SDS011;1248;48.694;10.160;2022-10-26T00:10:00;15.40;;;5.40;;
2474;SDS011;1248;48.694;10.160;2022-10-26T00:12:27;10.43;;;5.60;;
2474;SDS011;1248;48.694;10.160;2022-10-26T00:14:54;12.33;;;5.13;;
2474;SDS011;1248;48.694;10.160;2022-10-26T00:17:21;16.43;;;4.87;;
2474;SDS011;1248;48.694;10.160;2022-10-26T00:19:48;9.97;;;5.07;;
2474;SDS011;1248;48.694;10.160;2022-10-26T00:22:15;8.53;;;5.43;;
2474;SDS011;1248;48.694;10.160;2022-10-26T00:24:42;13.37;;;5.20;;
2474;SDS011;1248;48.694;10.160;2022-10-26T00:27:11;10.60;;;4.50;;
2474;SDS011;1248;48.694;10.160;2022-10-26T00:29:38;17.47;;;5.27;;
2474;SDS011;1248;48.694;10.160;2022-10-26T00:32:05;15.23;;;5.20;;
2474;SDS011;1248;48.694;10.160;2022-10-26T00:34:32;7.00;;;4.20;;
2474;SDS011;1248;48.694;10.160;2022-10-26T00:36:59;11.77;;;4.90;;
2474;SDS011;1248;48.694;10.160;2022-10-26T00:39:26;14.50;;;5.27;;
2474;SDS011;1248;48.694;10.160;2022-10-26T00:41:53;16.13;;;5.17;;
2474;SDS011;1248;48.694;10.160;2022-10-26T00:47:36;13.30;;;5.50;;
2474;SDS011;1248;48.694;10.160;2022-10-26T00:50:07;8.93;;;4.83;;
2474;SDS011;1248;48.694;10.160;2022-10-26T00:52:35;20.80;;;5.50;;
2474;SDS011;1248;48.694;10.160;2022-10-26T00:55:03;11.63;;;5.10;;
2474;SDS011;1248;48.694;10.160;2022-10-26T00:57:31;7.70;;;4.30;;
2474;SDS011;1248;48.694;10.160;2022-10-26T00:59:58;9.17;;;4.47;;
2474;SDS011;1248;48.694;10.160;2022-10-26T01:02:26;10.43;;;5.33;;
2474;SDS011;1248;48.694;10.160;2022-10-26T01:04:54;8.60;;;4.77;;
2474;SDS011;1248;48.694;10.160;2022-10-26T01:07:21;12.83;;;5.30;;
2474;SDS011;1248;48.694;10.160;2022-10-26T01:09:49;6.10;;;5.00;;
2474;SDS011;1248;48.694;10.160;2022-10-26T01:12:16;8.80;;;4.90;;
2474;SDS011;1248;48.694;10.160;2022-10-26T01:14:43;15.10;;;4.20;;
2474;SDS011;1248;48.694;10.160;2022-10-26T01:17:14;16.20;;;5.00;;
2474;SDS011;1248;48.694;10.160;2022-10-26T01:20:06;10.20;;;4.50;;
2474;SDS011;1248;48.694;10.160;2022-10-26T01:22:56;14.30;;;5.93;;
2474;SDS011;1248;48.694;10.160;2022-10-26T01:25:30;8.70;;;4.90;;
2474;SDS011;1248;48.694;10.160;2022-10-26T01:28:07;17.00;;;4.47;;
2474;SDS011;1248;48.694;10.160;2022-10-26T01:30:44;9.53;;;4.83;;
2474;SDS011;1248;48.694;10.160;2022-10-26T01:33:19;7.83;;;4.70;;
2474;SDS011;1248;48.694;10.160;2022-10-26T01:35:51;10.30;;;4.87;;
2474;SDS011;1248;48.694;10.160;2022-10-26T01:38:22;9.53;;;4.57;;
2474;SDS011;1248;48.694;10.160;2022-10-26T01:40:53;12.77;;;4.90;;
2474;SDS011;1248;48.694;10.160;2022-10-26T01:43:24;31.53;;;5.17;;
2474;SDS011;1248;48.694;10.160;2022-10-26T01:45:55;6.93;;;4.80;;
2474;SDS011;1248;48.694;10.160;2022-10-26T01:48:23;15.33;;;4.40;;
2474;SDS011;1248;48.694;10.160;2022-10-26T01:50:51;12.17;;;4.67;;
2474;SDS011;1248;48.694;10.160;2022-10-26T01:53:19;6.80;;;4.67;;
2474;SDS011;1248;48.694;10.160;2022-10-26T01:55:47;12.53;;;4.93;;
2474;SDS011;1248;48.694;10.160;2022-10-26T01:58:40;12.73;;;4.57;;
2474;SDS011;1248;48.694;10.160;2022-10-26T02:01:27;6.90;;;4.43;;
2474;SDS011;1248;48.694;10.160;2022-10-26T02:04:04;12.43;;;4.77;;
2474;SDS011;1248;48.694;10.160;2022-10-26T02:06:38;10.27;;;4.33;;
2474;SDS011;1248;48.694;10.160;2022-10-26T02:09:13;10.40;;;4.77;;
2474;SDS011;1248;48.694;10.160;2022-10-26T02:11:46;10.03;;;5.20;;
2474;SDS011;1248;48.694;10.160;2022-10-26T02:14:17;9.80;;;5.73;;
2474;SDS011;1248;48.694;10.160;2022-10-26T02:16:52;9.27;;;5.03;;
2474;SDS011;1248;48.694;10.160;2022-10-26T02:19:25;6.70;;;4.27;;
2474;SDS011;1248;48.694;10.160;2022-10-26T02:21:57;11.83;;;4.23;;
2474;SDS011;1248;48.694;10.160;2022-10-26T02:24:28;6.10;;;4.97;;
2474;SDS011;1248;48.694;10.160;2022-10-26T02:26:57;11.37;;;4.53;;
2474;SDS011;1248;48.694;10.160;2022-10-26T02:29:25;5.50;;;3.57;;
2474;SDS011;1248;48.694;10.160;2022-10-26T02:31:55;8.83;;;4.40;;
2474;SDS011;1248;48.694;10.160;2022-10-26T02:34:23;6.57;;;4.20;;
2474;SDS011;1248;48.694;10.160;2022-10-26T02:36:52;7.53;;;3.87;;
2474;SDS011;1248;48.694;10.160;2022-10-26T02:39:22;10.90;;;4.53;;
2474;SDS011;1248;48.694;10.160;2022-10-26T02:41:49;23.93;;;4.70;;
2474;SDS011;1248;48.694;10.160;2022-10-26T02:44:17;10.70;;;4.50;;
2474;SDS011;1248;48.694;10.160;2022-10-26T02:46:47;11.20;;;4.80;;
2474;SDS011;1248;48.694;10.160;2022-10-26T02:49:16;17.70;;;5.13;;
2474;SDS011;1248;48.694;10.160;2022-10-26T02:51:44;9.13;;;4.67;;
2474;SDS011;1248;48.694;10.160;2022-10-26T02:54:13;14.00;;;4.90;;
2474;SDS011;1248;48.694;10.160;2022-10-26T02:56:44;11.20;;;4.27;;
2474;SDS011;1248;48.694;10.160;2022-10-26T02:59:15;13.37;;;4.97;;
2474;SDS011;1248;48.694;10.160;2022-10-26T03:01:42;8.03;;;5.17;;
2474;SDS011;1248;48.694;10.160;2022-10-26T03:04:10;8.60;;;5.10;;
2474;SDS011;1248;48.694;10.160;2022-10-26T03:06:38;11.37;;;4.83;;
2474;SDS011;1248;48.694;10.160;2022-10-26T03:09:05;8.73;;;4.47;;
2474;SDS011;1248;48.694;10.160;2022-10-26T03:11:32;5.30;;;4.60;;
2474;SDS011;1248;48.694;10.160;2022-10-26T03:13:59;9.60;;;5.33;;
2474;SDS011;1248;48.694;10.160;2022-10-26T03:16:26;8.90;;;4.73;;
2474;SDS011;1248;48.694;10.160;2022-10-26T03:18:53;8.60;;;4.93;;
2474;SDS011;1248;48.694;10.160;2022-10-26T03:21:20;11.30;;;5.33;;
2474;SDS011;1248;48.694;10.160;2022-10-26T03:23:49;9.80;;;4.90;;
2474;SDS011;1248;48.694;10.160;2022-10-26T03:26:16;8.27;;;4.87;;
2474;SDS011;1248;48.694;10.160;2022-10-26T03:28:43;7.90;;;4.93;;
2474;SDS011;1248;48.694;10.160;2022-10-26T03:31:10;7.13;;;4.10;;
2474;SDS011;1248;48.694;10.160;2022-10-26T03:33:37;9.40;;;4.50;;
2474;SDS011;1248;48.694;10.160;2022-10-26T03:36:04;17.63;;;4.90;;
2474;SDS011;1248;48.694;10.160;2022-10-26T03:38:32;13.63;;;4.50;;
2474;SDS011;1248;48.694;10.160;2022-10-26T03:41:00;10.50;;;4.80;;
2474;SDS011;1248;48.694;10.160;2022-10-26T03:43:27;6.13;;;4.87;;
2474;SDS011;1248;48.694;10.160;2022-10-26T03:45:54;11.07;;;4.50;;
2474;SDS011;1248;48.694;10.160;2022-10-26T03:48:21;8.97;;;4.23;;
2474;SDS011;1248;48.694;10.160;2022-10-26T03:50:48;7.43;;;4.80;;
2474;SDS011;1248;48.694;10.160;2022-10-26T03:53:15;13.77;;;4.97;;
2474;SDS011;1248;48.694;10.160;2022-10-26T03:55:42;11.10;;;5.70;;
2474;SDS011;1248;48.694;10.160;2022-10-26T03:58:11;8.23;;;4.93;;
2474;SDS011;1248;48.694;10.160;2022-10-26T04:00:38;8.70;;;4.17;;
2474;SDS011;1248;48.694;10.160;2022-10-26T04:03:05;8.30;;;4.70;;
2474;SDS011;1248;48.694;10.160;2022-10-26T04:05:32;9.27;;;4.70;;
2474;SDS011;1248;48.694;10.160;2022-10-26T04:07:59;6.37;;;3.90;;
2474;SDS011;1248;48.694;10.160;2022-10-26T04:10:28;5.50;;;3.90;;
2474;SDS011;1248;48.694;10.160;2022-10-26T04:12:55;8.80;;;5.20;;
2474;SDS011;1248;48.694;10.160;2022-10-26T04:15:26;6.57;;;4.50;;
2474;SDS011;1248;48.694;10.160;2022-10-26T04:17:57;8.10;;;4.87;;
2474;SDS011;1248;48.694;10.160;2022-10-26T04:20:25;5.83;;;4.53;;
2474;SDS011;1248;48.694;10.160;2022-10-26T04:22:56;9.30;;;5.10;;
2474;SDS011;1248;48.694;10.160;2022-10-26T04:25:24;10.83;;;5.97;;
2474;SDS011;1248;48.694;10.160;2022-10-26T04:27:51;10.30;;;5.63;;
2474;SDS011;1248;48.694;10.160;2022-10-26T04:30:18;6.10;;;5.10;;
2474;SDS011;1248;48.694;10.160;2022-10-26T04:32:47;6.33;;;5.40;;
2474;SDS011;1248;48.694;10.160;2022-10-26T04:35:14;11.20;;;5.40;;
2474;SDS011;1248;48.694;10.160;2022-10-26T04:37:41;11.47;;;5.27;;
2474;SDS011;1248;48.694;10.160;2022-10-26T04:40:09;7.57;;;5.40;;
2474;SDS011;1248;48.694;10.160;2022-10-26T04:42:39;6.57;;;5.20;;
2474;SDS011;1248;48.694;10.160;2022-10-26T04:45:07;8.63;;;5.23;;
2474;SDS011;1248;48.694;10.160;2022-10-26T04:47:35;11.10;;;6.03;;
2474;SDS011;1248;48.694;10.160;2022-10-26T04:50:04;8.23;;;5.20;;
2474;SDS011;1248;48.694;10.160;2022-10-26T04:52:31;9.37;;;5.27;;
2474;SDS011;1248;48.694;10.160;2022-10-26T04:54:58;9.07;;;5.00;;
2474;SDS011;1248;48.694;10.160;2022-10-26T04:57:25;5.60;;;4.60;;
2474;SDS011;1248;48.694;10.160;2022-10-26T04:59:52;7.30;;;5.30;;
2474;SDS011;1248;48.694;10.160;2022-10-26T05:02:19;9.63;;;6.83;;
2474;SDS011;1248;48.694;10.160;2022-10-26T05:04:47;14.73;;;5.80;;
2474;SDS011;1248;48.694;10.160;2022-10-26T05:07:15;9.27;;;5.70;;
2474;SDS011;1248;48.694;10.160;2022-10-26T05:09:42;11.70;;;6.20;;
2474;SDS011;1248;48.694;10.160;2022-10-26T05:12:09;7.70;;;6.37;;
2474;SDS011;1248;48.694;10.160;2022-10-26T05:14:36;11.80;;;7.03;;
2474;SDS011;1248;48.694;10.160;2022-10-26T05:17:03;11.80;;;7.70;;
2474;SDS011;1248;48.694;10.160;2022-10-26T05:19:30;9.63;;;7.60;;
2474;SDS011;1248;48.694;10.160;2022-10-26T05:21:58;9.80;;;8.80;;
2474;SDS011;1248;48.694;10.160;2022-10-26T05:24:26;12.97;;;8.83;;
2474;SDS011;1248;48.694;10.160;2022-10-26T05:26:53;12.53;;;8.80;;
2474;SDS011;1248;48.694;10.160;2022-10-26T05:29:20;13.50;;;8.40;;
2474;SDS011;1248;48.694;10.160;2022-10-26T05:31:47;14.73;;;8.07;;
2474;SDS011;1248;48.694;10.160;2022-10-26T05:34:14;12.77;;;10.23;;
2474;SDS011;1248;48.694;10.160;2022-10-26T05:36:41;15.00;;;10.23;;
2474;SDS011;1248;48.694;10.160;2022-10-26T05:39:08;14.20;;;11.37;;
2474;SDS011;1248;48.694;10.160;2022-10-26T05:41:37;18.73;;;11.03;;
2474;SDS011;1248;48.694;10.160;2022-10-26T05:44:04;11.30;;;10.10;;
2474;SDS011;1248;48.694;10.160;2022-10-26T05:46:31;14.30;;;11.03;;
2474;SDS011;1248;48.694;10.160;2022-10-26T05:48:58;15.93;;;10.70;;
2474;SDS011;1248;48.694;10.160;2022-10-26T05:51:25;14.77;;;11.70;;
2474;SDS011;1248;48.694;10.160;2022-10-26T05:53:52;16.10;;;11.40;;
2474;SDS011;1248;48.694;10.160;2022-10-26T05:56:20;17.97;;;11.03;;
2474;SDS011;1248;48.694;10.160;2022-10-26T05:59:00;17.93;;;10.60;;
2474;SDS011;1248;48.694;10.160;2022-10-26T06:01:30;14.30;;;10.90;;
2474;SDS011;1248;48.694;10.160;2022-10-26T06:04:06;16.13;;;10.87;;
2474;SDS011;1248;48.694;10.160;2022-10-26T06:06:41;18.93;;;11.47;;
2474;SDS011;1248;48.694;10.160;2022-10-26T06:09:10;16.63;;;11.83;;
2474;SDS011;1248;48.694;10.160;2022-10-26T06:11:37;18.20;;;11.60;;
2474;SDS011;1248;48.694;10.160;2022-10-26T06:14:07;20.50;;;11.53;;
2474;SDS011;1248;48.694;10.160;2022-10-26T06:16:36;13.77;;;11.63;;
2474;SDS011;1248;48.694;10.160;2022-10-26T06:19:14;13.67;;;10.80;;
2474;SDS011;1248;48.694;10.160;2022-10-26T06:21:51;17.40;;;11.33;;
2474;SDS011;1248;48.694;10.160;2022-10-26T06:24:27;20.43;;;14.67;;
2474;SDS011;1248;48.694;10.160;2022-10-26T06:27:02;17.53;;;12.40;;
2474;SDS011;1248;48.694;10.160;2022-10-26T06:29:39;16.57;;;12.00;;
2474;SDS011;1248;48.694;10.160;2022-10-26T06:32:10;17.87;;;11.90;;
2474;SDS011;1248;48.694;10.160;2022-10-26T06:34:37;15.30;;;11.80;;
2474;SDS011;1248;48.694;10.160;2022-10-26T06:37:10;16.30;;;11.50;;
2474;SDS011;1248;48.694;10.160;2022-10-26T06:39:38;25.70;;;15.07;;
2474;SDS011;1248;48.694;10.160;2022-10-26T06:42:09;22.73;;;15.73;;
2474;SDS011;1248;48.694;10.160;2022-10-26T06:44:38;17.23;;;13.73;;
2474;SDS011;1248;48.694;10.160;2022-10-26T06:47:06;21.43;;;13.50;;
2474;SDS011;1248;48.694;10.160;2022-10-26T06:49:38;22.93;;;14.47;;
2474;SDS011;1248;48.694;10.160;2022-10-26T06:52:20;19.60;;;14.40;;
2474;SDS011;1248;48.694;10.160;2022-10-26T06:54:53;25.10;;;15.30;;
2474;SDS011;1248;48.694;10.160;2022-10-26T06:57:22;25.23;;;16.07;;
2474;SDS011;1248;48.694;10.160;2022-10-26T06:59:52;27.23;;;16.67;;
2474;SDS011;1248;48.694;10.160;2022-10-26T07:02:21;22.03;;;16.30;;
2474;SDS011;1248;48.694;10.160;2022-10-26T07:04:48;26.07;;;18.30;;
2474;SDS011;1248;48.694;10.160;2022-10-26T07:07:16;28.17;;;19.33;;
2474;SDS011;1248;48.694;10.160;2022-10-26T07:09:44;25.50;;;18.50;;
2474;SDS011;1248;48.694;10.160;2022-10-26T07:12:12;27.60;;;20.00;;
2474;SDS011;1248;48.694;10.160;2022-10-26T07:14:39;24.10;;;18.20;;
2474;SDS011;1248;48.694;10.160;2022-10-26T07:17:07;33.03;;;19.17;;
2474;SDS011;1248;48.694;10.160;2022-10-26T07:19:35;32.53;;;17.87;;
2474;SDS011;1248;48.694;10.160;2022-10-26T07:22:02;25.60;;;17.97;;
2474;SDS011;1248;48.694;10.160;2022-10-26T07:24:29;22.50;;;17.67;;
2474;SDS011;1248;48.694;10.160;2022-10-26T07:26:57;24.00;;;17.43;;
2474;SDS011;1248;48.694;10.160;2022-10-26T07:29:25;22.77;;;17.30;;
2474;SDS011;1248;48.694;10.160;2022-10-26T07:31:52;27.97;;;18.93;;
2474;SDS011;1248;48.694;10.160;2022-10-26T07:34:21;21.33;;;17.50;;
2474;SDS011;1248;48.694;10.160;2022-10-26T07:36:48;19.10;;;15.40;;
2474;SDS011;1248;48.694;10.160;2022-10-26T07:39:16;24.80;;;13.70;;
2474;SDS011;1248;48.694;10.160;2022-10-26T07:41:44;23.77;;;14.07;;
2474;SDS011;1248;48.694;10.160;2022-10-26T07:44:11;14.03;;;12.57;;
2474;SDS011;1248;48.694;10.160;2022-10-26T07:46:38;17.30;;;12.27;;
2474;SDS011;1248;48.694;10.160;2022-10-26T07:49:05;14.87;;;11.60;;
2474;SDS011;1248;48.694;10.160;2022-10-26T07:51:34;16.00;;;12.90;;
2474;SDS011;1248;48.694;10.160;2022-10-26T07:54:01;17.77;;;12.60;;
2474;SDS011;1248;48.694;10.160;2022-10-26T07:56:28;14.83;;;11.30;;
2474;SDS011;1248;48.694;10.160;2022-10-26T07:58:56;15.67;;;11.20;;
2474;SDS011;1248;48.694;10.160;2022-10-26T08:01:24;15.17;;;11.93;;
2474;SDS011;1248;48.694;10.160;2022-10-26T08:03:51;16.03;;;12.70;;
2474;SDS011;1248;48.694;10.160;2022-10-26T08:06:19;16.30;;;13.30;;
2474;SDS011;1248;48.694;10.160;2022-10-26T08:08:47;18.97;;;12.73;;
2474;SDS011;1248;48.694;10.160;2022-10-26T08:11:15;15.03;;;12.63;;
2474;SDS011;1248;48.694;10.160;2022-10-26T08:13:42;15.37;;;11.43;;
2474;SDS011;1248;48.694;10.160;2022-10-26T08:16:09;16.00;;;12.03;;
2474;SDS011;1248;48.694;10.160;2022-10-26T08:18:37;16.13;;;10.97;;
2474;SDS011;1248;48.694;10.160;2022-10-26T08:21:05;13.83;;;12.37;;
2474;SDS011;1248;48.694;10.160;2022-10-26T08:23:33;16.80;;;11.40;;
2474;SDS011;1248;48.694;10.160;2022-10-26T08:26:02;15.40;;;11.20;;
2474;SDS011;1248;48.694;10.160;2022-10-26T08:28:29;17.33;;;11.93;;
2474;SDS011;1248;48.694;10.160;2022-10-26T08:30:57;14.17;;;11.17;;
2474;SDS011;1248;48.694;10.160;2022-10-26T08:33:24;13.00;;;11.60;;
2474;SDS011;1248;48.694;10.160;2022-10-26T08:35:53;14.17;;;11.77;;
2474;SDS011;1248;48.694;10.160;2022-10-26T08:38:21;15.60;;;11.33;;
2474;SDS011;1248;48.694;10.160;2022-10-26T08:40:48;15.10;;;10.60;;
2474;SDS011;1248;48.694;10.160;2022-10-26T08:43:19;18.07;;;12.27;;
2474;SDS011;1248;48.694;10.160;2022-10-26T08:45:49;21.40;;;11.10;;
2474;SDS011;1248;48.694;10.160;2022-10-26T08:48:18;17.10;;;11.83;;
2474;SDS011;1248;48.694;10.160;2022-10-26T08:50:50;18.03;;;11.40;;
2474;SDS011;1248;48.694;10.160;2022-10-26T08:53:19;14.50;;;11.13;;
2474;SDS011;1248;48.694;10.160;2022-10-26T08:55:51;12.90;;;11.57;;
2474;SDS011;1248;48.694;10.160;2022-10-26T08:58:23;15.70;;;11.77;;
2474;SDS011;1248;48.694;10.160;2022-10-26T09:00:53;14.33;;;11.77;;
2474;SDS011;1248;48.694;10.160;2022-10-26T09:03:20;14.53;;;10.10;;
2474;SDS011;1248;48.694;10.160;2022-10-26T09:05:58;15.50;;;10.87;;
2474;SDS011;1248;48.694;10.160;2022-10-26T09:08:35;15.83;;;10.20;;
2474;SDS011;1248;48.694;10.160;2022-10-26T09:11:07;14.37;;;9.33;;
2474;SDS011;1248;48.694;10.160;2022-10-26T09:13:44;12.37;;;8.33;;
2474;SDS011;1248;48.694;10.160;2022-10-26T09:16:21;14.77;;;8.50;;
2474;SDS011;1248;48.694;10.160;2022-10-26T09:18:52;18.83;;;9.17;;
2474;SDS011;1248;48.694;10.160;2022-10-26T09:21:27;15.17;;;8.77;;
2474;SDS011;1248;48.694;10.160;2022-10-26T09:24:02;12.00;;;7.37;;
2474;SDS011;1248;48.694;10.160;2022-10-26T09:26:34;11.77;;;7.40;;
2474;SDS011;1248;48.694;10.160;2022-10-26T09:29:05;13.77;;;9.13;;
2474;SDS011;1248;48.694;10.160;2022-10-26T09:31:38;20.33;;;9.27;;
2474;SDS011;1248;48.694;10.160;2022-10-26T09:34:06;15.20;;;8.40;;
2474;SDS011;1248;48.694;10.160;2022-10-26T09:36:33;15.23;;;8.20;;
2474;SDS011;1248;48.694;10.160;2022-10-26T09:39:03;12.03;;;8.03;;
2474;SDS011;1248;48.694;10.160;2022-10-26T09:41:39;13.10;;;7.10;;
2474;SDS011;1248;48.694;10.160;2022-10-26T09:44:10;15.53;;;7.23;;
2474;SDS011;1248;48.694;10.160;2022-10-26T09:46:45;12.73;;;7.33;;
2474;SDS011;1248;48.694;10.160;2022-10-26T09:49:15;11.57;;;6.73;;
2474;SDS011;1248;48.694;10.160;2022-10-26T09:51:43;7.90;;;5.33;;
2474;SDS011;1248;48.694;10.160;2022-10-26T09:54:12;8.30;;;6.00;;
2474;SDS011;1248;48.694;10.160;2022-10-26T09:56:41;11.13;;;5.53;;
2474;SDS011;1248;48.694;10.160;2022-10-26T09:59:11;9.97;;;6.10;;
2474;SDS011;1248;48.694;10.160;2022-10-26T10:01:38;11.13;;;5.50;;
2474;SDS011;1248;48.694;10.160;2022-10-26T10:04:09;8.07;;;4.60;;
2474;SDS011;1248;48.694;10.160;2022-10-26T10:06:45;6.70;;;4.87;;
2474;SDS011;1248;48.694;10.160;2022-10-26T10:09:13;14.80;;;5.90;;
2474;SDS011;1248;48.694;10.160;2022-10-26T10:11:42;7.27;;;4.40;;
2474;SDS011;1248;48.694;10.160;2022-10-26T10:14:14;12.83;;;5.43;;
2474;SDS011;1248;48.694;10.160;2022-10-26T10:16:49;8.90;;;5.43;;
2474;SDS011;1248;48.694;10.160;2022-10-26T10:19:20;8.37;;;5.73;;
2474;SDS011;1248;48.694;10.160;2022-10-26T10:21:48;7.90;;;4.80;;
2474;SDS011;1248;48.694;10.160;2022-10-26T10:24:21;8.23;;;5.40;;
2474;SDS011;1248;48.694;10.160;2022-10-26T10:26:56;9.43;;;4.87;;
2474;SDS011;1248;48.694;10.160;2022-10-26T10:29:30;6.30;;;4.40;;
2474;SDS011;1248;48.694;10.160;2022-10-26T10:31:58;14.80;;;5.00;;
2474;SDS011;1248;48.694;10.160;2022-10-26T10:34:29;9.30;;;5.57;;
2474;SDS011;1248;48.694;10.160;2022-10-26T10:36:56;10.97;;;4.87;;
2474;SDS011;1248;48.694;10.160;2022-10-26T10:39:35;6.50;;;3.73;;
2474;SDS011;1248;48.694;10.160;2022-10-26T10:42:05;8.97;;;4.27;;
2474;SDS011;1248;48.694;10.160;2022-10-26T10:44:40;5.87;;;4.50;;
2474;SDS011;1248;48.694;10.160;2022-10-26T10:47:13;8.97;;;5.07;;
2474;SDS011;1248;48.694;10.160;2022-10-26T10:49:48;9.00;;;4.53;;
2474;SDS011;1248;48.694;10.160;2022-10-26T10:52:21;7.50;;;4.37;;
2474;SDS011;1248;48.694;10.160;2022-10-26T10:54:50;7.57;;;4.63;;
2474;SDS011;1248;48.694;10.160;2022-10-26T10:57:23;15.40;;;6.33;;
2474;SDS011;1248;48.694;10.160;2022-10-26T10:59:58;9.43;;;4.53;;
2474;SDS011;1248;48.694;10.160;2022-10-26T11:05:45;16.03;;;6.47;;
2474;SDS011;1248;48.694;10.160;2022-10-26T11:08:19;10.33;;;5.70;;
2474;SDS011;1248;48.694;10.160;2022-10-26T11:10:48;9.60;;;4.07;;
2474;SDS011;1248;48.694;10.160;2022-10-26T11:13:18;14.87;;;7.10;;
2474;SDS011;1248;48.694;10.160;2022-10-26T11:15:49;5.00;;;3.97;;
2474;SDS011;1248;48.694;10.160;2022-10-26T11:18:20;6.83;;;3.40;;
2474;SDS011;1248;48.694;10.160;2022-10-26T11:20:50;4.30;;;2.20;;
2474;SDS011;1248;48.694;10.160;2022-10-26T11:23:22;6.07;;;2.17;;
2474;SDS011;1248;48.694;10.160;2022-10-26T11:25:54;5.30;;;2.23;;
2474;SDS011;1248;48.694;10.160;2022-10-26T11:28:36;8.23;;;2.80;;
2474;SDS011;1248;48.694;10.160;2022-10-26T11:31:06;9.37;;;2.20;;
2474;SDS011;1248;48.694;10.160;2022-10-26T11:33:39;6.80;;;2.40;;
2474;SDS011;1248;48.694;10.160;2022-10-26T11:36:07;5.70;;;2.00;;
2474;SDS011;1248;48.694;10.160;2022-10-26T11:38:37;9.43;;;2.67;;
2474;SDS011;1248;48.694;10.160;2022-10-26T11:41:07;12.77;;;2.97;;
2474;SDS011;1248;48.694;10.160;2022-10-26T11:43:40;9.77;;;2.40;;
2474;SDS011;1248;48.694;10.160;2022-10-26T11:46:13;6.40;;;2.10;;
2474;SDS011;1248;48.694;10.160;2022-10-26T11:48:43;5.17;;;2.40;;
2474;SDS011;1248;48.694;10.160;2022-10-26T11:51:15;7.17;;;2.20;;
2474;SDS011;1248;48.694;10.160;2022-10-26T11:54:00;6.10;;;2.80;;
2474;SDS011;1248;48.694;10.160;2022-10-26T11:56:32;7.20;;;2.37;;
2474;SDS011;1248;48.694;10.160;2022-10-26T11:59:01;5.53;;;1.97;;
2474;SDS011;1248;48.694;10.160;2022-10-26T12:01:30;9.60;;;3.10;;
2474;SDS011;1248;48.694;10.160;2022-10-26T12:03:57;5.73;;;2.40;;
2474;SDS011;1248;48.694;10.160;2022-10-26T12:06:27;5.03;;;2.20;;
2474;SDS011;1248;48.694;10.160;2022-10-26T12:08:56;5.60;;;2.10;;
2474;SDS011;1248;48.694;10.160;2022-10-26T12:11:30;6.97;;;2.50;;
2474;SDS011;1248;48.694;10.160;2022-10-26T12:14:03;6.20;;;2.40;;
2474;SDS011;1248;48.694;10.160;2022-10-26T12:16:42;4.70;;;2.70;;
2474;SDS011;1248;48.694;10.160;2022-10-26T12:19:14;5.50;;;2.53;;
2474;SDS011;1248;48.694;10.160;2022-10-26T12:21:44;4.97;;;2.20;;
2474;SDS011;1248;48.694;10.160;2022-10-26T12:24:26;6.03;;;2.17;;
2474;SDS011;1248;48.694;10.160;2022-10-26T12:26:55;4.73;;;2.20;;
2474;SDS011;1248;48.694;10.160;2022-10-26T12:29:26;7.23;;;1.93;;
2474;SDS011;1248;48.694;10.160;2022-10-26T12:31:56;7.63;;;3.00;;
2474;SDS011;1248;48.694;10.160;2022-10-26T12:34:24;4.33;;;2.13;;
2474;SDS011;1248;48.694;10.160;2022-10-26T12:37:21;6.87;;;2.50;;
2474;SDS011;1248;48.694;10.160;2022-10-26T12:39:49;7.20;;;2.70;;
2474;SDS011;1248;48.694;10.160;2022-10-26T12:42:28;4.70;;;2.10;;
2474;SDS011;1248;48.694;10.160;2022-10-26T12:45:06;7.00;;;2.23;;
2474;SDS011;1248;48.694;10.160;2022-10-26T12:48:01;8.80;;;2.30;;
2474;SDS011;1248;48.694;10.160;2022-10-26T12:50:30;10.37;;;2.67;;
2474;SDS011;1248;48.694;10.160;2022-10-26T12:52:57;7.63;;;2.20;;
2474;SDS011;1248;48.694;10.160;2022-10-26T12:58:26;11.43;;;2.40;;
2474;SDS011;1248;48.694;10.160;2022-10-26T13:04:15;6.80;;;2.10;;
2474;SDS011;1248;48.694;10.160;2022-10-26T13:06:53;5.80;;;2.03;;
2474;SDS011;1248;48.694;10.160;2022-10-26T13:09:35;10.60;;;2.70;;
2474;SDS011;1248;48.694;10.160;2022-10-26T13:12:02;8.83;;;2.83;;
2474;SDS011;1248;48.694;10.160;2022-10-26T13:14:30;11.00;;;2.50;;
2474;SDS011;1248;48.694;10.160;2022-10-26T13:16:59;5.87;;;2.60;;
2474;SDS011;1248;48.694;10.160;2022-10-26T13:19:30;6.63;;;2.43;;
2474;SDS011;1248;48.694;10.160;2022-10-26T13:21:59;6.70;;;2.60;;
2474;SDS011;1248;48.694;10.160;2022-10-26T13:24:27;6.53;;;2.10;;
2474;SDS011;1248;48.694;10.160;2022-10-26T13:30:15;5.57;;;2.33;;
2474;SDS011;1248;48.694;10.160;2022-10-26T13:32:48;6.67;;;2.00;;
2474;SDS011;1248;48.694;10.160;2022-10-26T13:35:18;8.57;;;2.43;;
2474;SDS011;1248;48.694;10.160;2022-10-26T13:37:47;7.17;;;2.80;;
2474;SDS011;1248;48.694;10.160;2022-10-26T13:40:16;6.60;;;2.47;;
2474;SDS011;1248;48.694;10.160;2022-10-26T13:42:44;5.73;;;2.10;;
2474;SDS011;1248;48.694;10.160;2022-10-26T13:45:14;6.10;;;2.20;;
2474;SDS011;1248;48.694;10.160;2022-10-26T13:47:44;7.47;;;2.30;;
2474;SDS011;1248;48.694;10.160;2022-10-26T13:50:14;12.57;;;4.40;;
2474;SDS011;1248;48.694;10.160;2022-10-26T13:52:45;7.00;;;2.47;;
2474;SDS011;1248;48.694;10.160;2022-10-26T13:55:14;6.70;;;2.10;;
2474;SDS011;1248;48.694;10.160;2022-10-26T13:57:48;7.20;;;2.30;;
2474;SDS011;1248;48.694;10.160;2022-10-26T14:00:26;5.10;;;2.97;;
2474;SDS011;1248;48.694;10.160;2022-10-26T14:02:54;5.40;;;2.40;;
2474;SDS011;1248;48.694;10.160;2022-10-26T14:05:21;6.40;;;2.07;;
2474;SDS011;1248;48.694;10.160;2022-10-26T14:07:50;7.47;;;1.90;;
2474;SDS011;1248;48.694;10.160;2022-10-26T14:10:22;10.80;;;2.87;;
2474;SDS011;1248;48.694;10.160;2022-10-26T14:12:50;6.20;;;2.50;;
2474;SDS011;1248;48.694;10.160;2022-10-26T14:15:18;11.27;;;2.83;;
2474;SDS011;1248;48.694;10.160;2022-10-26T14:17:49;7.13;;;2.63;;
2474;SDS011;1248;48.694;10.160;2022-10-26T14:20:17;5.73;;;2.07;;
2474;SDS011;1248;48.694;10.160;2022-10-26T14:22:46;8.00;;;4.37;;
2474;SDS011;1248;48.694;10.160;2022-10-26T14:25:18;7.33;;;3.20;;
2474;SDS011;1248;48.694;10.160;2022-10-26T14:27:47;9.87;;;3.80;;
2474;SDS011;1248;48.694;10.160;2022-10-26T14:30:21;14.00;;;3.90;;
2474;SDS011;1248;48.694;10.160;2022-10-26T14:32:49;9.17;;;3.23;;
2474;SDS011;1248;48.694;10.160;2022-10-26T14:35:17;4.40;;;2.60;;
2474;SDS011;1248;48.694;10.160;2022-10-26T14:37:45;7.80;;;3.30;;
2474;SDS011;1248;48.694;10.160;2022-10-26T14:40:18;3.67;;;2.17;;
2474;SDS011;1248;48.694;10.160;2022-10-26T14:42:47;8.33;;;3.03;;
2474;SDS011;1248;48.694;10.160;2022-10-26T14:45:22;13.80;;;3.03;;
2474;SDS011;1248;48.694;10.160;2022-10-26T14:47:51;6.67;;;2.93;;
2474;SDS011;1248;48.694;10.160;2022-10-26T14:50:18;5.20;;;2.57;;
2474;SDS011;1248;48.694;10.160;2022-10-26T14:52:48;7.30;;;2.53;;
2474;SDS011;1248;48.694;10.160;2022-10-26T14:55:17;9.00;;;3.00;;
2474;SDS011;1248;48.694;10.160;2022-10-26T14:57:46;10.27;;;3.30;;
2474;SDS011;1248;48.694;10.160;2022-10-26T15:00:14;7.43;;;2.90;;
2474;SDS011;1248;48.694;10.160;2022-10-26T15:02:43;6.57;;;2.63;;
2474;SDS011;1248;48.694;10.160;2022-10-26T15:05:19;6.83;;;2.63;;
2474;SDS011;1248;48.694;10.160;2022-10-26T15:07:51;12.23;;;2.97;;
2474;SDS011;1248;48.694;10.160;2022-10-26T15:13:17;7.43;;;2.80;;
2474;SDS011;1248;48.694;10.160;2022-10-26T15:15:48;9.50;;;3.00;;
2474;SDS011;1248;48.694;10.160;2022-10-26T15:18:16;8.33;;;2.70;;
2474;SDS011;1248;48.694;10.160;2022-10-26T15:20:46;10.20;;;3.00;;
2474;SDS011;1248;48.694;10.160;2022-10-26T15:23:15;9.43;;;3.50;;
2474;SDS011;1248;48.694;10.160;2022-10-26T15:25:49;8.17;;;3.23;;